sensor_id;sensor_type;location;lat;lon;timestamp;P1;durP1;ratioP1;P2;durP2;ratioP2
62844;SDS011;48929;47.910;20.390;2023-04-19T00:01:57;7.10;;;4.30;;
62844;SDS011;48929;47.910;20.390;2023-04-19T00:04:26;6.78;;;4.20;;
62844;SDS011;48929;47.910;20.390;2023-04-19T00:06:56;6.63;;;4.35;;
62844;SDS011;48929;47.910;20.390;2023-04-19T00:09:24;7.05;;;4.50;;
62844;SDS011;48929;47.910;20.390;2023-04-19T00:11:53;7.88;;;4.60;;
62844;SDS011;48929;47.910;20.390;2023-04-19T00:14:24;8.82;;;4.70;;
62844;SDS011;48929;47.910;20.390;2023-04-19T00:16:53;6.30;;;4.15;;
62844;SDS011;48929;47.910;20.390;2023-04-19T00:19:24;6.82;;;4.43;;
62844;SDS011;48929;47.910;20.390;2023-04-19T00:21:54;8.75;;;4.10;;
62844;SDS011;48929;47.910;20.390;2023-04-19T00:24:24;6.97;;;4.20;;
62844;SDS011;48929;47.910;20.390;2023-04-19T00:26:53;7.40;;;4.53;;
62844;SDS011;48929;47.910;20.390;2023-04-19T00:29:24;6.93;;;4.40;;
62844;SDS011;48929;47.910;20.390;2023-04-19T00:31:54;6.95;;;4.40;;
62844;SDS011;48929;47.910;20.390;2023-04-19T00:34:23;8.77;;;4.65;;
62844;SDS011;48929;47.910;20.390;2023-04-19T00:36:52;9.50;;;5.15;;
62844;SDS011;48929;47.910;20.390;2023-04-19T00:39:21;10.68;;;4.78;;
62844;SDS011;48929;47.910;20.390;2023-04-19T00:41:54;7.63;;;4.80;;
62844;SDS011;48929;47.910;20.390;2023-04-19T00:44:25;10.98;;;5.45;;
62844;SDS011;48929;47.910;20.390;2023-04-19T00:46:55;9.32;;;5.22;;
62844;SDS011;48929;47.910;20.390;2023-04-19T00:49:25;7.90;;;4.82;;
62844;SDS011;48929;47.910;20.390;2023-04-19T00:51:55;9.48;;;5.40;;
62844;SDS011;48929;47.910;20.390;2023-04-19T00:54:24;9.55;;;4.90;;
62844;SDS011;48929;47.910;20.390;2023-04-19T00:56:53;8.70;;;4.78;;
62844;SDS011;48929;47.910;20.390;2023-04-19T00:59:28;9.40;;;4.97;;
62844;SDS011;48929;47.910;20.390;2023-04-19T01:02:02;10.52;;;5.15;;
62844;SDS011;48929;47.910;20.390;2023-04-19T01:04:33;8.50;;;5.03;;
62844;SDS011;48929;47.910;20.390;2023-04-19T01:07:02;8.55;;;4.70;;
62844;SDS011;48929;47.910;20.390;2023-04-19T01:09:31;9.38;;;5.07;;
62844;SDS011;48929;47.910;20.390;2023-04-19T01:12:00;9.88;;;5.10;;
62844;SDS011;48929;47.910;20.390;2023-04-19T01:14:31;9.52;;;4.75;;
62844;SDS011;48929;47.910;20.390;2023-04-19T01:17:00;9.30;;;4.95;;
62844;SDS011;48929;47.910;20.390;2023-04-19T01:19:31;9.13;;;5.25;;
62844;SDS011;48929;47.910;20.390;2023-04-19T01:22:01;7.35;;;4.70;;
62844;SDS011;48929;47.910;20.390;2023-04-19T01:24:34;8.48;;;5.13;;
62844;SDS011;48929;47.910;20.390;2023-04-19T01:27:03;7.72;;;4.88;;
62844;SDS011;48929;47.910;20.390;2023-04-19T01:29:32;9.32;;;5.32;;
62844;SDS011;48929;47.910;20.390;2023-04-19T01:32:02;8.70;;;5.10;;
62844;SDS011;48929;47.910;20.390;2023-04-19T01:34:31;9.40;;;4.82;;
62844;SDS011;48929;47.910;20.390;2023-04-19T01:37:00;8.32;;;4.93;;
62844;SDS011;48929;47.910;20.390;2023-04-19T01:39:29;9.70;;;5.05;;
62844;SDS011;48929;47.910;20.390;2023-04-19T01:41:59;8.40;;;5.10;;
62844;SDS011;48929;47.910;20.390;2023-04-19T01:44:29;10.02;;;5.20;;
62844;SDS011;48929;47.910;20.390;2023-04-19T01:46:58;10.05;;;5.95;;
62844;SDS011;48929;47.910;20.390;2023-04-19T01:49:27;8.75;;;5.30;;
62844;SDS011;48929;47.910;20.390;2023-04-19T01:51:56;11.13;;;5.03;;
62844;SDS011;48929;47.910;20.390;2023-04-19T01:54:26;8.35;;;5.20;;
62844;SDS011;48929;47.910;20.390;2023-04-19T01:56:55;9.18;;;4.93;;
62844;SDS011;48929;47.910;20.390;2023-04-19T02:02:09;7.65;;;4.68;;
62844;SDS011;48929;47.910;20.390;2023-04-19T02:04:38;8.35;;;5.13;;
62844;SDS011;48929;47.910;20.390;2023-04-19T02:07:07;9.85;;;4.85;;
62844;SDS011;48929;47.910;20.390;2023-04-19T02:09:41;9.55;;;5.15;;
62844;SDS011;48929;47.910;20.390;2023-04-19T02:12:09;8.73;;;4.85;;
62844;SDS011;48929;47.910;20.390;2023-04-19T02:14:38;7.65;;;4.90;;
62844;SDS011;48929;47.910;20.390;2023-04-19T02:17:09;8.85;;;4.47;;
62844;SDS011;48929;47.910;20.390;2023-04-19T02:22:46;8.45;;;4.93;;
62844;SDS011;48929;47.910;20.390;2023-04-19T02:25:15;8.43;;;5.00;;
62844;SDS011;48929;47.910;20.390;2023-04-19T02:27:45;7.72;;;5.00;;
62844;SDS011;48929;47.910;20.390;2023-04-19T02:30:14;8.93;;;4.95;;
62844;SDS011;48929;47.910;20.390;2023-04-19T02:32:46;8.13;;;5.00;;
62844;SDS011;48929;47.910;20.390;2023-04-19T02:35:15;9.45;;;5.30;;
62844;SDS011;48929;47.910;20.390;2023-04-19T02:37:43;8.45;;;4.90;;
62844;SDS011;48929;47.910;20.390;2023-04-19T02:40:12;9.02;;;5.43;;
62844;SDS011;48929;47.910;20.390;2023-04-19T02:42:41;9.93;;;5.32;;
62844;SDS011;48929;47.910;20.390;2023-04-19T02:45:10;8.45;;;5.05;;
62844;SDS011;48929;47.910;20.390;2023-04-19T02:47:40;8.65;;;5.10;;
62844;SDS011;48929;47.910;20.390;2023-04-19T02:50:11;8.55;;;5.15;;
62844;SDS011;48929;47.910;20.390;2023-04-19T02:52:40;9.00;;;4.88;;
62844;SDS011;48929;47.910;20.390;2023-04-19T02:55:09;7.75;;;4.93;;
62844;SDS011;48929;47.910;20.390;2023-04-19T02:57:38;10.50;;;5.53;;
62844;SDS011;48929;47.910;20.390;2023-04-19T03:00:07;10.25;;;5.50;;
62844;SDS011;48929;47.910;20.390;2023-04-19T03:02:37;9.77;;;5.53;;
62844;SDS011;48929;47.910;20.390;2023-04-19T03:05:06;11.43;;;5.60;;
62844;SDS011;48929;47.910;20.390;2023-04-19T03:07:36;9.52;;;5.63;;
62844;SDS011;48929;47.910;20.390;2023-04-19T03:10:07;9.23;;;5.20;;
62844;SDS011;48929;47.910;20.390;2023-04-19T03:12:39;9.85;;;5.53;;
62844;SDS011;48929;47.910;20.390;2023-04-19T03:15:08;10.52;;;5.88;;
62844;SDS011;48929;47.910;20.390;2023-04-19T03:17:42;9.80;;;5.30;;
62844;SDS011;48929;47.910;20.390;2023-04-19T03:20:14;9.43;;;5.60;;
62844;SDS011;48929;47.910;20.390;2023-04-19T03:22:57;9.80;;;5.55;;
62844;SDS011;48929;47.910;20.390;2023-04-19T03:25:36;8.07;;;5.32;;
62844;SDS011;48929;47.910;20.390;2023-04-19T03:28:59;9.57;;;5.57;;
62844;SDS011;48929;47.910;20.390;2023-04-19T03:31:28;9.88;;;6.18;;
62844;SDS011;48929;47.910;20.390;2023-04-19T03:33:57;10.43;;;6.15;;
62844;SDS011;48929;47.910;20.390;2023-04-19T03:36:26;8.45;;;5.90;;
62844;SDS011;48929;47.910;20.390;2023-04-19T03:38:56;8.52;;;5.72;;
62844;SDS011;48929;47.910;20.390;2023-04-19T03:41:25;8.77;;;5.50;;
62844;SDS011;48929;47.910;20.390;2023-04-19T03:44:01;9.30;;;5.80;;
62844;SDS011;48929;47.910;20.390;2023-04-19T03:46:29;10.45;;;6.25;;
62844;SDS011;48929;47.910;20.390;2023-04-19T03:48:59;10.95;;;6.35;;
62844;SDS011;48929;47.910;20.390;2023-04-19T03:51:28;11.82;;;6.55;;
62844;SDS011;48929;47.910;20.390;2023-04-19T03:53:59;11.77;;;6.32;;
62844;SDS011;48929;47.910;20.390;2023-04-19T03:56:28;11.60;;;6.18;;
62844;SDS011;48929;47.910;20.390;2023-04-19T03:58:57;9.60;;;5.93;;
62844;SDS011;48929;47.910;20.390;2023-04-19T04:01:26;11.85;;;6.60;;
62844;SDS011;48929;47.910;20.390;2023-04-19T04:03:55;11.93;;;6.22;;
62844;SDS011;48929;47.910;20.390;2023-04-19T04:06:27;12.18;;;6.32;;
62844;SDS011;48929;47.910;20.390;2023-04-19T04:08:55;14.80;;;6.78;;
62844;SDS011;48929;47.910;20.390;2023-04-19T04:40:18;10.88;;;6.18;;
62844;SDS011;48929;47.910;20.390;2023-04-19T04:49:59;8.23;;;5.93;;
62844;SDS011;48929;47.910;20.390;2023-04-19T04:55:26;9.48;;;5.80;;
62844;SDS011;48929;47.910;20.390;2023-04-19T05:00:56;10.93;;;6.78;;
62844;SDS011;48929;47.910;20.390;2023-04-19T05:03:30;9.80;;;6.57;;
62844;SDS011;48929;47.910;20.390;2023-04-19T05:06:00;11.52;;;6.60;;
62844;SDS011;48929;47.910;20.390;2023-04-19T05:08:30;9.90;;;6.53;;
62844;SDS011;48929;47.910;20.390;2023-04-19T05:11:01;12.65;;;6.65;;
62844;SDS011;48929;47.910;20.390;2023-04-19T05:13:39;11.90;;;7.68;;
62844;SDS011;48929;47.910;20.390;2023-04-19T05:16:25;10.88;;;7.22;;
62844;SDS011;48929;47.910;20.390;2023-04-19T05:19:01;12.70;;;7.38;;
62844;SDS011;48929;47.910;20.390;2023-04-19T05:21:33;13.48;;;7.80;;
62844;SDS011;48929;47.910;20.390;2023-04-19T05:24:02;11.63;;;8.02;;
62844;SDS011;48929;47.910;20.390;2023-04-19T05:26:37;12.68;;;8.27;;
62844;SDS011;48929;47.910;20.390;2023-04-19T05:29:08;12.90;;;8.23;;
62844;SDS011;48929;47.910;20.390;2023-04-19T05:31:40;14.93;;;8.52;;
62844;SDS011;48929;47.910;20.390;2023-04-19T05:34:09;12.95;;;8.55;;
62844;SDS011;48929;47.910;20.390;2023-04-19T05:36:38;14.13;;;8.48;;
62844;SDS011;48929;47.910;20.390;2023-04-19T05:39:10;12.30;;;8.05;;
62844;SDS011;48929;47.910;20.390;2023-04-19T05:41:52;12.68;;;8.15;;
62844;SDS011;48929;47.910;20.390;2023-04-19T05:44:24;10.90;;;7.75;;
62844;SDS011;48929;47.910;20.390;2023-04-19T05:47:24;14.10;;;7.95;;
62844;SDS011;48929;47.910;20.390;2023-04-19T05:50:11;13.55;;;7.95;;
62844;SDS011;48929;47.910;20.390;2023-04-19T05:52:43;12.57;;;8.15;;
62844;SDS011;48929;47.910;20.390;2023-04-19T05:55:12;11.98;;;8.05;;
62844;SDS011;48929;47.910;20.390;2023-04-19T05:57:43;13.63;;;8.18;;
62844;SDS011;48929;47.910;20.390;2023-04-19T06:00:12;13.18;;;7.88;;
62844;SDS011;48929;47.910;20.390;2023-04-19T06:02:41;16.52;;;8.25;;
62844;SDS011;48929;47.910;20.390;2023-04-19T06:05:19;13.93;;;8.73;;
62844;SDS011;48929;47.910;20.390;2023-04-19T06:07:49;13.75;;;8.52;;
62844;SDS011;48929;47.910;20.390;2023-04-19T06:10:31;13.50;;;8.13;;
62844;SDS011;48929;47.910;20.390;2023-04-19T06:13:45;15.03;;;8.87;;
62844;SDS011;48929;47.910;20.390;2023-04-19T06:16:20;13.70;;;8.57;;
62844;SDS011;48929;47.910;20.390;2023-04-19T06:18:49;15.40;;;9.00;;
62844;SDS011;48929;47.910;20.390;2023-04-19T06:21:21;12.80;;;8.60;;
62844;SDS011;48929;47.910;20.390;2023-04-19T06:23:50;14.93;;;8.50;;
62844;SDS011;48929;47.910;20.390;2023-04-19T06:26:18;16.35;;;8.40;;
62844;SDS011;48929;47.910;20.390;2023-04-19T06:28:52;18.00;;;8.65;;
62844;SDS011;48929;47.910;20.390;2023-04-19T06:31:21;18.17;;;8.73;;
62844;SDS011;48929;47.910;20.390;2023-04-19T06:33:52;16.83;;;9.38;;
62844;SDS011;48929;47.910;20.390;2023-04-19T06:36:30;16.20;;;8.90;;
62844;SDS011;48929;47.910;20.390;2023-04-19T06:38:59;15.02;;;8.25;;
62844;SDS011;48929;47.910;20.390;2023-04-19T06:41:28;11.25;;;7.97;;
62844;SDS011;48929;47.910;20.390;2023-04-19T06:43:59;14.27;;;8.10;;
62844;SDS011;48929;47.910;20.390;2023-04-19T06:46:27;11.60;;;7.85;;
62844;SDS011;48929;47.910;20.390;2023-04-19T06:48:57;11.90;;;7.53;;
62844;SDS011;48929;47.910;20.390;2023-04-19T06:51:25;12.00;;;8.15;;
62844;SDS011;48929;47.910;20.390;2023-04-19T06:53:57;11.52;;;7.80;;
62844;SDS011;48929;47.910;20.390;2023-04-19T06:56:39;13.60;;;7.93;;
62844;SDS011;48929;47.910;20.390;2023-04-19T06:59:16;13.77;;;7.90;;
62844;SDS011;48929;47.910;20.390;2023-04-19T07:01:51;12.55;;;7.40;;
62844;SDS011;48929;47.910;20.390;2023-04-19T07:04:24;9.57;;;7.22;;
62844;SDS011;48929;47.910;20.390;2023-04-19T07:06:56;10.45;;;7.40;;
62844;SDS011;48929;47.910;20.390;2023-04-19T07:09:29;12.57;;;7.45;;
62844;SDS011;48929;47.910;20.390;2023-04-19T07:11:58;11.77;;;7.28;;
62844;SDS011;48929;47.910;20.390;2023-04-19T07:14:29;10.63;;;7.40;;
62844;SDS011;48929;47.910;20.390;2023-04-19T07:17:03;9.55;;;6.57;;
62844;SDS011;48929;47.910;20.390;2023-04-19T07:19:32;10.43;;;6.82;;
62844;SDS011;48929;47.910;20.390;2023-04-19T07:22:02;10.57;;;6.30;;
62844;SDS011;48929;47.910;20.390;2023-04-19T07:27:42;13.00;;;6.82;;
62844;SDS011;48929;47.910;20.390;2023-04-19T07:30:12;8.30;;;5.82;;
62844;SDS011;48929;47.910;20.390;2023-04-19T07:32:43;9.27;;;5.90;;
62844;SDS011;48929;47.910;20.390;2023-04-19T07:35:17;9.48;;;6.20;;
62844;SDS011;48929;47.910;20.390;2023-04-19T07:37:46;9.82;;;6.00;;
62844;SDS011;48929;47.910;20.390;2023-04-19T07:40:19;8.05;;;5.68;;
62844;SDS011;48929;47.910;20.390;2023-04-19T07:42:47;7.75;;;5.68;;
62844;SDS011;48929;47.910;20.390;2023-04-19T07:45:19;8.20;;;5.53;;
62844;SDS011;48929;47.910;20.390;2023-04-19T07:47:48;7.50;;;5.57;;
62844;SDS011;48929;47.910;20.390;2023-04-19T07:50:17;10.50;;;5.30;;
62844;SDS011;48929;47.910;20.390;2023-04-19T07:52:48;7.97;;;5.68;;
62844;SDS011;48929;47.910;20.390;2023-04-19T07:55:16;11.18;;;6.47;;
62844;SDS011;48929;47.910;20.390;2023-04-19T07:57:46;9.27;;;5.15;;
62844;SDS011;48929;47.910;20.390;2023-04-19T08:00:15;7.68;;;5.25;;
62844;SDS011;48929;47.910;20.390;2023-04-19T08:02:46;11.10;;;6.65;;
62844;SDS011;48929;47.910;20.390;2023-04-19T08:05:17;10.23;;;7.13;;
62844;SDS011;48929;47.910;20.390;2023-04-19T08:07:46;10.30;;;7.32;;
62844;SDS011;48929;47.910;20.390;2023-04-19T08:10:15;9.73;;;6.78;;
62844;SDS011;48929;47.910;20.390;2023-04-19T08:12:48;11.75;;;7.03;;
62844;SDS011;48929;47.910;20.390;2023-04-19T08:15:22;9.98;;;7.35;;
62844;SDS011;48929;47.910;20.390;2023-04-19T08:17:58;9.10;;;6.95;;
62844;SDS011;48929;47.910;20.390;2023-04-19T08:20:27;10.95;;;7.45;;
62844;SDS011;48929;47.910;20.390;2023-04-19T08:22:56;8.77;;;6.78;;
62844;SDS011;48929;47.910;20.390;2023-04-19T08:25:46;11.68;;;7.07;;
62844;SDS011;48929;47.910;20.390;2023-04-19T08:28:17;10.32;;;6.80;;
62844;SDS011;48929;47.910;20.390;2023-04-19T08:30:57;8.63;;;6.40;;
62844;SDS011;48929;47.910;20.390;2023-04-19T08:33:39;9.57;;;6.60;;
62844;SDS011;48929;47.910;20.390;2023-04-19T08:36:08;8.18;;;6.40;;
62844;SDS011;48929;47.910;20.390;2023-04-19T08:38:45;9.63;;;5.90;;
62844;SDS011;48929;47.910;20.390;2023-04-19T08:41:30;8.27;;;6.22;;
62844;SDS011;48929;47.910;20.390;2023-04-19T08:43:59;8.30;;;5.45;;
62844;SDS011;48929;47.910;20.390;2023-04-19T08:46:29;8.20;;;5.50;;
62844;SDS011;48929;47.910;20.390;2023-04-19T08:49:02;11.85;;;6.20;;
62844;SDS011;48929;47.910;20.390;2023-04-19T08:51:42;11.98;;;6.85;;
62844;SDS011;48929;47.910;20.390;2023-04-19T08:54:21;10.30;;;7.50;;
62844;SDS011;48929;47.910;20.390;2023-04-19T08:57:15;10.90;;;7.40;;
62844;SDS011;48929;47.910;20.390;2023-04-19T08:59:44;14.90;;;7.63;;
62844;SDS011;48929;47.910;20.390;2023-04-19T09:02:25;12.07;;;7.80;;
62844;SDS011;48929;47.910;20.390;2023-04-19T09:04:58;9.93;;;6.93;;
62844;SDS011;48929;47.910;20.390;2023-04-19T09:07:37;14.00;;;7.72;;
62844;SDS011;48929;47.910;20.390;2023-04-19T09:10:26;9.63;;;7.50;;
62844;SDS011;48929;47.910;20.390;2023-04-19T09:13:12;12.30;;;7.63;;
62844;SDS011;48929;47.910;20.390;2023-04-19T09:16:22;11.07;;;7.30;;
62844;SDS011;48929;47.910;20.390;2023-04-19T09:19:33;9.55;;;7.40;;
62844;SDS011;48929;47.910;20.390;2023-04-19T09:22:39;11.00;;;7.68;;
62844;SDS011;48929;47.910;20.390;2023-04-19T09:25:34;10.98;;;7.90;;
62844;SDS011;48929;47.910;20.390;2023-04-19T09:29:02;12.43;;;8.23;;
62844;SDS011;48929;47.910;20.390;2023-04-19T09:31:58;10.45;;;7.45;;
62844;SDS011;48929;47.910;20.390;2023-04-19T09:34:51;13.70;;;8.50;;
62844;SDS011;48929;47.910;20.390;2023-04-19T09:37:30;12.15;;;8.00;;
62844;SDS011;48929;47.910;20.390;2023-04-19T09:40:26;12.93;;;8.35;;
62844;SDS011;48929;47.910;20.390;2023-04-19T09:43:02;11.55;;;7.95;;
62844;SDS011;48929;47.910;20.390;2023-04-19T09:45:56;12.20;;;8.60;;
62844;SDS011;48929;47.910;20.390;2023-04-19T09:48:32;14.10;;;8.60;;
62844;SDS011;48929;47.910;20.390;2023-04-19T09:51:11;10.98;;;8.63;;
62844;SDS011;48929;47.910;20.390;2023-04-19T09:53:42;12.77;;;9.00;;
62844;SDS011;48929;47.910;20.390;2023-04-19T09:56:26;11.95;;;8.10;;
62844;SDS011;48929;47.910;20.390;2023-04-19T09:59:11;15.20;;;8.68;;
62844;SDS011;48929;47.910;20.390;2023-04-19T10:01:47;12.35;;;8.27;;
62844;SDS011;48929;47.910;20.390;2023-04-19T10:04:23;13.05;;;7.97;;
62844;SDS011;48929;47.910;20.390;2023-04-19T10:07:12;11.82;;;8.30;;
62844;SDS011;48929;47.910;20.390;2023-04-19T10:09:47;14.32;;;8.18;;
62844;SDS011;48929;47.910;20.390;2023-04-19T10:12:29;13.07;;;8.48;;
62844;SDS011;48929;47.910;20.390;2023-04-19T10:15:03;12.32;;;7.93;;
62844;SDS011;48929;47.910;20.390;2023-04-19T10:17:36;13.68;;;8.43;;
62844;SDS011;48929;47.910;20.390;2023-04-19T10:20:06;13.27;;;8.55;;
62844;SDS011;48929;47.910;20.390;2023-04-19T10:22:40;12.07;;;8.25;;
62844;SDS011;48929;47.910;20.390;2023-04-19T10:25:12;13.60;;;9.25;;
62844;SDS011;48929;47.910;20.390;2023-04-19T10:27:44;11.65;;;7.85;;
62844;SDS011;48929;47.910;20.390;2023-04-19T10:30:22;12.25;;;6.72;;
62844;SDS011;48929;47.910;20.390;2023-04-19T10:32:55;8.30;;;5.40;;
62844;SDS011;48929;47.910;20.390;2023-04-19T10:35:43;7.82;;;5.15;;
62844;SDS011;48929;47.910;20.390;2023-04-19T10:43:15;7.68;;;4.88;;
62844;SDS011;48929;47.910;20.390;2023-04-19T10:45:48;7.88;;;4.30;;
62844;SDS011;48929;47.910;20.390;2023-04-19T10:56:00;7.20;;;4.40;;
62844;SDS011;48929;47.910;20.390;2023-04-19T10:58:31;5.45;;;4.03;;
62844;SDS011;48929;47.910;20.390;2023-04-19T11:01:41;6.25;;;4.13;;
62844;SDS011;48929;47.910;20.390;2023-04-19T11:04:13;5.25;;;4.18;;
62844;SDS011;48929;47.910;20.390;2023-04-19T11:07:00;5.75;;;4.18;;
62844;SDS011;48929;47.910;20.390;2023-04-19T11:09:35;7.45;;;4.50;;
62844;SDS011;48929;47.910;20.390;2023-04-19T11:12:29;8.60;;;4.47;;
62844;SDS011;48929;47.910;20.390;2023-04-19T11:15:01;7.43;;;4.43;;
62844;SDS011;48929;47.910;20.390;2023-04-19T11:17:30;6.45;;;4.70;;
62844;SDS011;48929;47.910;20.390;2023-04-19T11:19:59;6.53;;;4.55;;
62844;SDS011;48929;47.910;20.390;2023-04-19T11:22:37;6.85;;;5.00;;
62844;SDS011;48929;47.910;20.390;2023-04-19T11:25:09;8.27;;;4.95;;
62844;SDS011;48929;47.910;20.390;2023-04-19T11:27:39;9.48;;;5.65;;
62844;SDS011;48929;47.910;20.390;2023-04-19T11:30:16;9.30;;;5.95;;
62844;SDS011;48929;47.910;20.390;2023-04-19T11:32:56;8.02;;;5.60;;
62844;SDS011;48929;47.910;20.390;2023-04-19T11:35:26;7.68;;;5.05;;
62844;SDS011;48929;47.910;20.390;2023-04-19T11:37:57;9.18;;;5.25;;
62844;SDS011;48929;47.910;20.390;2023-04-19T11:40:27;9.02;;;5.07;;
62844;SDS011;48929;47.910;20.390;2023-04-19T11:42:57;7.85;;;5.10;;
62844;SDS011;48929;47.910;20.390;2023-04-19T11:45:28;8.02;;;6.10;;
62844;SDS011;48929;47.910;20.390;2023-04-19T11:48:06;7.32;;;5.47;;
62844;SDS011;48929;47.910;20.390;2023-04-19T11:50:41;8.77;;;6.15;;
62844;SDS011;48929;47.910;20.390;2023-04-19T11:53:14;9.80;;;6.30;;
62844;SDS011;48929;47.910;20.390;2023-04-19T11:56:06;8.85;;;6.07;;
62844;SDS011;48929;47.910;20.390;2023-04-19T11:58:56;8.85;;;6.03;;
62844;SDS011;48929;47.910;20.390;2023-04-19T12:04:25;9.98;;;6.15;;
62844;SDS011;48929;47.910;20.390;2023-04-19T12:06:58;8.80;;;6.13;;
62844;SDS011;48929;47.910;20.390;2023-04-19T12:09:37;10.05;;;6.40;;
62844;SDS011;48929;47.910;20.390;2023-04-19T12:12:07;8.90;;;5.82;;
62844;SDS011;48929;47.910;20.390;2023-04-19T12:14:55;9.40;;;5.95;;
62844;SDS011;48929;47.910;20.390;2023-04-19T12:17:27;8.32;;;5.60;;
62844;SDS011;48929;47.910;20.390;2023-04-19T12:23:06;8.82;;;5.75;;
62844;SDS011;48929;47.910;20.390;2023-04-19T12:25:37;7.47;;;5.45;;
62844;SDS011;48929;47.910;20.390;2023-04-19T12:28:06;6.28;;;4.55;;
62844;SDS011;48929;47.910;20.390;2023-04-19T12:30:45;7.68;;;4.55;;
62844;SDS011;48929;47.910;20.390;2023-04-19T12:33:17;6.78;;;4.78;;
62844;SDS011;48929;47.910;20.390;2023-04-19T12:35:49;6.85;;;4.68;;
62844;SDS011;48929;47.910;20.390;2023-04-19T12:38:19;6.40;;;4.60;;
62844;SDS011;48929;47.910;20.390;2023-04-19T12:40:50;8.63;;;4.72;;
62844;SDS011;48929;47.910;20.390;2023-04-19T12:43:18;6.18;;;4.80;;
62844;SDS011;48929;47.910;20.390;2023-04-19T12:45:47;7.45;;;4.95;;
62844;SDS011;48929;47.910;20.390;2023-04-19T12:48:23;7.95;;;4.57;;
62844;SDS011;48929;47.910;20.390;2023-04-19T12:50:52;6.85;;;4.68;;
62844;SDS011;48929;47.910;20.390;2023-04-19T12:53:21;5.60;;;4.55;;
62844;SDS011;48929;47.910;20.390;2023-04-19T12:55:51;5.85;;;4.60;;
62844;SDS011;48929;47.910;20.390;2023-04-19T12:58:19;6.22;;;4.32;;
62844;SDS011;48929;47.910;20.390;2023-04-19T13:00:48;7.35;;;4.45;;
62844;SDS011;48929;47.910;20.390;2023-04-19T13:03:18;8.00;;;5.18;;
62844;SDS011;48929;47.910;20.390;2023-04-19T13:05:49;7.72;;;4.80;;
62844;SDS011;48929;47.910;20.390;2023-04-19T13:08:22;6.97;;;4.88;;
62844;SDS011;48929;47.910;20.390;2023-04-19T13:11:11;8.00;;;5.18;;
62844;SDS011;48929;47.910;20.390;2023-04-19T13:13:42;6.75;;;4.93;;
62844;SDS011;48929;47.910;20.390;2023-04-19T13:16:11;6.90;;;5.10;;
62844;SDS011;48929;47.910;20.390;2023-04-19T13:18:40;7.50;;;5.05;;
62844;SDS011;48929;47.910;20.390;2023-04-19T13:21:10;7.63;;;5.22;;
62844;SDS011;48929;47.910;20.390;2023-04-19T13:24:01;8.05;;;4.95;;
62844;SDS011;48929;47.910;20.390;2023-04-19T13:26:30;7.07;;;5.40;;
62844;SDS011;48929;47.910;20.390;2023-04-19T13:29:00;7.95;;;5.60;;
62844;SDS011;48929;47.910;20.390;2023-04-19T13:31:29;8.27;;;5.47;;
62844;SDS011;48929;47.910;20.390;2023-04-19T13:34:02;9.75;;;6.20;;
62844;SDS011;48929;47.910;20.390;2023-04-19T13:36:32;9.18;;;6.40;;
62844;SDS011;48929;47.910;20.390;2023-04-19T13:39:02;10.73;;;7.00;;
62844;SDS011;48929;47.910;20.390;2023-04-19T13:41:34;10.32;;;6.55;;
62844;SDS011;48929;47.910;20.390;2023-04-19T13:44:02;8.93;;;6.30;;
62844;SDS011;48929;47.910;20.390;2023-04-19T13:46:31;11.05;;;6.80;;
62844;SDS011;48929;47.910;20.390;2023-04-19T13:49:02;10.60;;;6.45;;
62844;SDS011;48929;47.910;20.390;2023-04-19T13:51:51;8.55;;;6.15;;
62844;SDS011;48929;47.910;20.390;2023-04-19T13:54:24;8.07;;;4.90;;
62844;SDS011;48929;47.910;20.390;2023-04-19T13:56:58;7.88;;;5.30;;
62844;SDS011;48929;47.910;20.390;2023-04-19T13:59:30;6.95;;;5.13;;
62844;SDS011;48929;47.910;20.390;2023-04-19T14:02:01;8.52;;;5.55;;
62844;SDS011;48929;47.910;20.390;2023-04-19T14:04:30;7.55;;;4.80;;
62844;SDS011;48929;47.910;20.390;2023-04-19T14:07:01;6.50;;;4.70;;
62844;SDS011;48929;47.910;20.390;2023-04-19T14:09:30;6.68;;;4.90;;
62844;SDS011;48929;47.910;20.390;2023-04-19T14:11:59;7.43;;;4.57;;
62844;SDS011;48929;47.910;20.390;2023-04-19T14:14:30;5.85;;;3.95;;
62844;SDS011;48929;47.910;20.390;2023-04-19T14:16:59;5.80;;;4.18;;
62844;SDS011;48929;47.910;20.390;2023-04-19T14:19:27;8.45;;;4.40;;
62844;SDS011;48929;47.910;20.390;2023-04-19T14:21:56;7.25;;;4.60;;
62844;SDS011;48929;47.910;20.390;2023-04-19T14:24:28;6.80;;;4.80;;
62844;SDS011;48929;47.910;20.390;2023-04-19T14:26:57;7.43;;;4.78;;
62844;SDS011;48929;47.910;20.390;2023-04-19T14:29:37;8.55;;;4.97;;
62844;SDS011;48929;47.910;20.390;2023-04-19T14:32:05;8.38;;;5.47;;
62844;SDS011;48929;47.910;20.390;2023-04-19T14:34:51;7.07;;;4.78;;
62844;SDS011;48929;47.910;20.390;2023-04-19T14:37:21;8.88;;;5.25;;
62844;SDS011;48929;47.910;20.390;2023-04-19T14:39:52;7.25;;;4.90;;
62844;SDS011;48929;47.910;20.390;2023-04-19T14:42:21;10.05;;;5.40;;
62844;SDS011;48929;47.910;20.390;2023-04-19T14:44:50;7.68;;;5.15;;
62844;SDS011;48929;47.910;20.390;2023-04-19T14:47:21;6.60;;;5.10;;
62844;SDS011;48929;47.910;20.390;2023-04-19T14:49:50;7.43;;;5.10;;
62844;SDS011;48929;47.910;20.390;2023-04-19T14:52:31;7.78;;;5.13;;
62844;SDS011;48929;47.910;20.390;2023-04-19T14:55:02;8.75;;;5.10;;
62844;SDS011;48929;47.910;20.390;2023-04-19T14:57:31;7.65;;;5.50;;
62844;SDS011;48929;47.910;20.390;2023-04-19T15:00:00;8.02;;;5.63;;
62844;SDS011;48929;47.910;20.390;2023-04-19T15:05:38;7.53;;;5.40;;
62844;SDS011;48929;47.910;20.390;2023-04-19T15:08:07;9.05;;;5.55;;
62844;SDS011;48929;47.910;20.390;2023-04-19T15:10:57;8.75;;;5.30;;
62844;SDS011;48929;47.910;20.390;2023-04-19T15:13:26;17.23;;;11.88;;
62844;SDS011;48929;47.910;20.390;2023-04-19T15:15:57;11.10;;;7.25;;
62844;SDS011;48929;47.910;20.390;2023-04-19T15:18:29;8.43;;;5.93;;
62844;SDS011;48929;47.910;20.390;2023-04-19T15:20:57;13.27;;;10.40;;
62844;SDS011;48929;47.910;20.390;2023-04-19T15:23:26;9.20;;;6.57;;
62844;SDS011;48929;47.910;20.390;2023-04-19T15:25:57;6.85;;;4.97;;
62844;SDS011;48929;47.910;20.390;2023-04-19T15:28:25;7.03;;;5.28;;
62844;SDS011;48929;47.910;20.390;2023-04-19T15:30:58;7.68;;;5.55;;
62844;SDS011;48929;47.910;20.390;2023-04-19T15:33:27;7.88;;;5.55;;
62844;SDS011;48929;47.910;20.390;2023-04-19T15:35:56;7.28;;;5.40;;
62844;SDS011;48929;47.910;20.390;2023-04-19T15:38:26;7.05;;;5.10;;
62844;SDS011;48929;47.910;20.390;2023-04-19T15:40:58;7.65;;;4.85;;
62844;SDS011;48929;47.910;20.390;2023-04-19T15:43:28;9.85;;;5.45;;
62844;SDS011;48929;47.910;20.390;2023-04-19T15:45:58;8.98;;;5.90;;
62844;SDS011;48929;47.910;20.390;2023-04-19T15:48:27;9.82;;;5.80;;
62844;SDS011;48929;47.910;20.390;2023-04-19T15:50:58;8.00;;;5.55;;
62844;SDS011;48929;47.910;20.390;2023-04-19T15:53:27;8.00;;;5.55;;
62844;SDS011;48929;47.910;20.390;2023-04-19T15:55:58;8.32;;;5.60;;
62844;SDS011;48929;47.910;20.390;2023-04-19T15:58:30;6.90;;;5.78;;
62844;SDS011;48929;47.910;20.390;2023-04-19T16:00:58;9.40;;;5.45;;
62844;SDS011;48929;47.910;20.390;2023-04-19T16:03:36;7.57;;;5.90;;
62844;SDS011;48929;47.910;20.390;2023-04-19T16:06:10;10.57;;;5.90;;
62844;SDS011;48929;47.910;20.390;2023-04-19T16:08:39;10.18;;;5.40;;
62844;SDS011;48929;47.910;20.390;2023-04-19T16:11:10;7.78;;;5.47;;
62844;SDS011;48929;47.910;20.390;2023-04-19T16:13:39;9.18;;;5.55;;
62844;SDS011;48929;47.910;20.390;2023-04-19T16:16:08;8.38;;;5.75;;
62844;SDS011;48929;47.910;20.390;2023-04-19T16:18:37;11.63;;;7.40;;
62844;SDS011;48929;47.910;20.390;2023-04-19T16:21:06;9.20;;;6.47;;